In Rescue
 
Open Full Screen Window  High Contrast Mode
Wind Gusting 00 knots
05
July 22, 2019 11:41 PM CDT
Weather Information
Wind Direction
  280 °
Wind Speed
  05 kt (6 mph)
Wind Gust
  00 kt (0 mph)
Altimeter
30.18 in
Visibility
10 SM
Temperature
16° C
61° F
Dewpoint
13° C
55° F
Humidity
83%
1hr Rain Fall
00.00 in.
24hr Rain Fall
00.00 in.
Sky Condition
Clear
VFR

METAR KEVM 230441Z AUTO 28005KT 10SM CLR 16/13 A3018 RMK AO2 T01600132

FAA Disclaimer: The data displayed is for advisory purposes only and is not to be used for flight planning or operations.